Stenlille, Denmark
Current Conditions -  °F | °C
As of 9:20 PM on Thursday 23 Oct 2014 (Local Time) from EKRK Reporting Station
Broken Clouds Broken Clouds  
Wind Chill: 52°   Ceiling: 1800
Heat Index: 52°   Visibility: 6mi
Dew Point: 48°   Wind: 13mph
Humidity: 88%   Direction: 160°SSE
Pressure: 30.15"   Gusts: NA
Location:  55.54°N, 11.59°E
Report Text: EKRK 231920Z AUTO 16011KT 9999NDV SCT014/// BKN018///BKN040/// 11/09 Q1021
Loading
Personal Weather Stations






























Interactive Weather Map
Tropical Storm Tracking
New forecast layout! Learn more

10-Day Weather Forecast

Advertisements
Track Severe Weather on mobile